createdAt,value
2018-08-22T00:01:13.928Z,65.92
2018-08-22T00:03:43.280Z,66.68
2018-08-22T00:06:15.588Z,67.00
2018-08-22T00:08:45.920Z,67.17
2018-08-22T00:11:15.098Z,67.40
2018-08-22T00:13:44.706Z,67.52
2018-08-22T00:16:14.142Z,67.56
2018-08-22T00:18:43.410Z,67.44
2018-08-22T00:21:12.284Z,67.73
2018-08-22T00:23:42.350Z,68.34
2018-08-22T00:26:11.314Z,68.34
2018-08-22T00:28:40.415Z,68.38
2018-08-22T00:31:10.671Z,68.26
2018-08-22T00:33:43.378Z,68.58
2018-08-22T00:36:12.964Z,69.25
2018-08-22T00:38:42.563Z,69.39
2018-08-22T00:41:11.740Z,69.75
2018-08-22T00:43:41.365Z,69.86
2018-08-22T00:46:10.777Z,70.04
2018-08-22T00:48:39.692Z,70.19
2018-08-22T00:51:08.758Z,70.75
2018-08-22T00:53:37.698Z,71.22
2018-08-22T00:56:06.772Z,71.27
2018-08-22T00:58:36.233Z,71.56
2018-08-22T01:01:05.242Z,71.78
2018-08-22T01:03:34.185Z,72.41
2018-08-22T01:06:03.778Z,72.75
2018-08-22T01:08:32.941Z,72.46
2018-08-22T01:11:01.932Z,72.46
2018-08-22T01:13:31.174Z,71.88
2018-08-22T01:16:00.102Z,71.03
2018-08-22T01:18:28.999Z,71.40
2018-08-22T01:20:57.882Z,71.29
2018-08-22T01:23:26.873Z,72.00
2018-08-22T01:25:55.979Z,71.69
2018-08-22T01:28:25.336Z,71.83
2018-08-22T01:30:54.282Z,71.50
2018-08-22T01:33:23.371Z,71.92
2018-08-22T01:35:52.457Z,72.65
2018-08-22T01:38:21.382Z,72.90
2018-08-22T01:40:50.428Z,73.09
2018-08-22T01:43:19.702Z,73.12
2018-08-22T01:45:48.656Z,73.71
2018-08-22T01:48:17.823Z,73.54
2018-08-22T01:50:46.727Z,74.33
2018-08-22T01:53:15.620Z,74.93
2018-08-22T01:55:44.654Z,75.24
2018-08-22T01:58:14.034Z,75.85
2018-08-22T02:00:42.871Z,76.27
2018-08-22T02:03:11.910Z,76.21
2018-08-22T02:05:41.298Z,76.88
2018-08-22T02:08:10.299Z,77.61
2018-08-22T02:10:39.388Z,78.17
2018-08-22T02:13:08.785Z,78.67
2018-08-22T02:15:37.697Z,78.77
2018-08-22T02:18:06.662Z,79.28
2018-08-22T02:20:35.623Z,78.85
2018-08-22T02:23:04.629Z,78.90
2018-08-22T02:25:33.736Z,79.01
2018-08-22T02:28:03.057Z,78.22
2018-08-22T02:30:32.038Z,78.41
2018-08-22T02:33:00.950Z,78.38
2018-08-22T02:35:29.851Z,78.25
2018-08-22T02:37:58.702Z,77.25
2018-08-22T02:40:27.619Z,77.90
2018-08-22T02:42:56.542Z,77.43
2018-08-22T02:45:25.533Z,77.96
2018-08-22T02:47:54.383Z,78.28
2018-08-22T02:50:23.745Z,77.70
2018-08-22T02:52:52.686Z,77.65
2018-08-22T02:55:21.644Z,76.79
2018-08-22T02:57:51.245Z,77.03
2018-08-22T03:00:20.180Z,77.34
2018-08-22T03:02:49.292Z,76.91
2018-08-22T03:05:18.285Z,76.91
2018-08-22T03:07:47.237Z,77.14
2018-08-22T03:10:16.157Z,76.64
2018-08-22T03:12:45.378Z,77.03
2018-08-22T03:15:14.386Z,75.96
2018-08-22T03:17:43.383Z,76.29
2018-08-22T03:20:12.328Z,75.72
2018-08-22T03:22:41.411Z,75.61
2018-08-22T03:25:10.414Z,75.45
2018-08-22T03:27:39.931Z,75.79
2018-08-22T03:30:08.882Z,75.87
2018-08-22T03:32:37.733Z,75.25
2018-08-22T03:35:07.224Z,75.22
2018-08-22T03:37:36.060Z,75.46
2018-08-22T03:40:05.005Z,75.98
2018-08-22T03:42:33.969Z,75.95
2018-08-22T03:45:03.031Z,75.81
2018-08-22T03:47:32.085Z,75.81
2018-08-22T03:50:01.059Z,75.76
2018-08-22T03:52:30.003Z,74.93
2018-08-22T03:54:59.022Z,74.89
2018-08-22T03:57:28.133Z,74.43
2018-08-22T03:59:57.132Z,74.51
2018-08-22T04:02:26.033Z,74.30
2018-08-22T04:04:54.894Z,73.87
2018-08-22T04:07:23.857Z,73.61
2018-08-22T04:09:52.838Z,73.15
2018-08-22T04:12:22.158Z,72.73
2018-08-22T04:14:51.164Z,72.32
2018-08-22T04:17:20.259Z,71.55
2018-08-22T04:19:49.641Z,71.34
2018-08-22T04:22:18.511Z,70.33
2018-08-22T04:24:47.452Z,70.33
2018-08-22T04:27:16.940Z,69.95
2018-08-22T04:29:45.880Z,69.33
2018-08-22T04:32:14.862Z,68.99
2018-08-22T04:34:44.201Z,68.16
2018-08-22T04:37:13.184Z,67.61
2018-08-22T04:39:42.176Z,67.10
2018-08-22T04:42:11.900Z,66.03
2018-08-22T04:44:40.950Z,66.00
2018-08-22T04:47:09.961Z,65.34
2018-08-22T04:49:39.386Z,64.34
2018-08-22T04:52:08.276Z,64.24
2018-08-22T04:54:37.139Z,63.13
2018-08-22T04:57:06.473Z,62.49
2018-08-22T04:59:35.408Z,62.25
2018-08-22T05:02:04.431Z,62.16
2018-08-22T05:04:33.438Z,62.20
2018-08-22T05:07:02.459Z,62.62
2018-08-22T05:09:31.213Z,62.22
2018-08-22T05:12:00.252Z,60.78
2018-08-22T05:14:29.361Z,61.69
2018-08-22T05:16:58.473Z,60.73
2018-08-22T05:19:27.879Z,60.44
2018-08-22T05:21:56.780Z,61.39
2018-08-22T05:24:25.663Z,60.79
2018-08-22T05:26:55.114Z,61.64
2018-08-22T05:29:24.008Z,61.65
2018-08-22T05:31:52.804Z,60.68
2018-08-22T05:34:22.044Z,61.19
2018-08-22T05:36:50.925Z,61.64
2018-08-22T05:39:20.089Z,61.01
2018-08-22T05:41:49.400Z,61.89
2018-08-22T05:44:18.380Z,61.10
2018-08-22T05:46:47.328Z,61.94
2018-08-22T05:49:16.630Z,62.01
2018-08-22T05:51:45.613Z,61.53
2018-08-22T05:54:14.641Z,61.94
2018-08-22T05:56:43.926Z,62.11
2018-08-22T05:59:12.870Z,62.63
2018-08-22T06:01:41.732Z,63.04
2018-08-22T06:04:10.968Z,62.54
2018-08-22T06:06:39.985Z,61.49
2018-08-22T06:09:12.316Z,62.23
2018-08-22T06:11:42.237Z,61.46
2018-08-22T06:14:11.686Z,62.20
2018-08-22T06:16:40.665Z,61.63
2018-08-22T06:19:09.903Z,61.45
2018-08-22T06:21:38.882Z,59.95
2018-08-22T06:24:07.955Z,60.56
2018-08-22T06:26:37.125Z,60.75
2018-08-22T06:29:06.081Z,58.77
2018-08-22T06:31:34.936Z,58.49
2018-08-22T06:34:03.870Z,58.51
2018-08-22T06:36:32.804Z,58.63
2018-08-22T06:39:01.696Z,58.33
2018-08-22T06:41:30.626Z,57.58
2018-08-22T06:43:59.585Z,57.76
2018-08-22T06:46:28.530Z,56.84
2018-08-22T06:48:57.353Z,56.67
2018-08-22T06:51:26.664Z,56.87
2018-08-22T06:53:55.555Z,56.13
2018-08-22T06:56:24.473Z,56.15
2018-08-22T06:58:53.728Z,56.83
2018-08-22T07:01:22.569Z,56.60
2018-08-22T07:03:51.500Z,56.13
2018-08-22T07:06:20.369Z,55.98
2018-08-22T07:08:49.274Z,54.70
2018-08-22T07:11:18.137Z,53.97
2018-08-22T07:13:47.203Z,53.64
2018-08-22T07:16:16.095Z,53.37
2018-08-22T07:18:45.079Z,54.27
2018-08-22T07:21:14.340Z,53.50
2018-08-22T07:23:43.193Z,53.05
2018-08-22T07:26:12.245Z,53.27
2018-08-22T07:28:41.344Z,53.16
2018-08-22T07:37:55.162Z,51.47
2018-08-22T07:40:24.003Z,51.33
2018-08-22T07:42:53.169Z,51.25
2018-08-22T07:45:22.834Z,50.76
2018-08-22T07:47:51.889Z,49.16
2018-08-22T07:50:20.905Z,49.42
2018-08-22T07:53:05.931Z,49.75
2018-08-22T07:55:38.516Z,48.01
2018-08-22T07:58:07.882Z,48.80
2018-08-22T08:00:37.002Z,48.18
2018-08-22T08:03:06.093Z,49.26
2018-08-22T08:05:35.804Z,49.42
2018-08-22T08:08:04.933Z,48.30
2018-08-22T08:10:34.889Z,48.52
2018-08-22T08:13:09.515Z,48.70
2018-08-22T08:15:38.382Z,48.29
2018-08-22T08:18:07.304Z,48.22
2018-08-22T08:20:36.569Z,46.80
2018-08-22T08:23:05.640Z,48.20
2018-08-22T08:25:34.615Z,47.10
2018-08-22T08:28:03.441Z,46.01
2018-08-22T08:30:32.417Z,44.79
2018-08-22T08:33:01.388Z,45.09
2018-08-22T08:35:30.533Z,45.13
2018-08-22T08:37:59.500Z,43.15
2018-08-22T08:40:28.480Z,42.80
2018-08-22T08:42:57.410Z,42.85
2018-08-22T08:45:26.300Z,42.65
2018-08-22T08:47:55.263Z,43.05
2018-08-22T08:50:24.385Z,42.19
2018-08-22T08:52:53.461Z,41.89
2018-08-22T08:55:22.448Z,41.32
2018-08-22T08:57:51.819Z,39.80
2018-08-22T09:00:20.846Z,39.98
2018-08-22T09:02:49.629Z,40.23
2018-08-22T09:05:18.675Z,39.51
2018-08-22T09:07:47.777Z,38.64
2018-08-22T09:10:16.850Z,37.88
2018-08-22T09:12:46.081Z,36.01
2018-08-22T09:15:15.040Z,37.20
2018-08-22T09:17:44.113Z,36.87
2018-08-22T09:20:13.219Z,36.17
2018-08-22T09:22:42.163Z,36.10
2018-08-22T09:25:11.227Z,35.35
2018-08-22T09:27:40.720Z,35.27
2018-08-22T09:30:09.801Z,33.28
2018-08-22T09:32:38.935Z,33.94
2018-08-22T09:35:08.144Z,34.55
2018-08-22T09:37:37.020Z,33.79
2018-08-22T09:40:06.069Z,34.28
2018-08-22T09:42:35.594Z,33.54
2018-08-22T09:45:04.625Z,33.59
2018-08-22T09:47:33.522Z,34.04
2018-08-22T09:50:03.002Z,33.98
2018-08-22T09:52:31.925Z,34.81
2018-08-22T09:55:02.405Z,34.03
2018-08-22T09:57:31.993Z,34.29
2018-08-22T10:00:01.006Z,33.92
2018-08-22T10:09:17.332Z,33.92
2018-08-22T10:11:46.313Z,33.95
2018-08-22T10:14:15.432Z,34.69
2018-08-22T10:16:44.441Z,33.51
2018-08-22T10:19:13.448Z,33.50
2018-08-22T10:21:42.421Z,33.61
2018-08-22T10:24:11.696Z,33.29
2018-08-22T10:26:40.717Z,32.64
2018-08-22T10:29:09.660Z,33.45
2018-08-22T10:31:39.027Z,33.31
2018-08-22T10:34:07.814Z,33.01
2018-08-22T10:36:36.698Z,32.91
2018-08-22T10:39:08.428Z,33.89
2018-08-22T10:41:37.667Z,34.17
2018-08-22T10:44:07.060Z,32.93
2018-08-22T10:46:36.406Z,33.73
2018-08-22T10:49:05.359Z,32.29
2018-08-22T10:51:34.389Z,33.25
2018-08-22T10:54:03.380Z,32.88
2018-08-22T10:56:32.682Z,32.85
2018-08-22T10:59:01.706Z,32.98
2018-08-22T11:01:31.003Z,33.01
2018-08-22T11:03:59.970Z,32.50
2018-08-22T11:06:28.987Z,32.21
2018-08-22T11:08:58.485Z,30.88
2018-08-22T11:11:27.549Z,31.73
2018-08-22T11:13:56.486Z,32.70
2018-08-22T11:16:25.573Z,30.51
2018-08-22T11:18:54.652Z,31.38
2018-08-22T11:21:34.598Z,31.13
2018-08-22T11:24:14.323Z,31.21
2018-08-22T11:26:54.116Z,30.94
2018-08-22T11:29:34.086Z,30.43
2018-08-22T11:32:13.985Z,30.52
2018-08-22T11:34:47.918Z,30.24
2018-08-22T11:37:17.801Z,29.47
2018-08-22T11:39:48.216Z,30.05
2018-08-22T11:42:17.248Z,30.83
2018-08-22T11:44:46.556Z,30.27
2018-08-22T11:47:15.508Z,29.66
2018-08-22T11:49:44.574Z,29.82
2018-08-22T11:52:13.522Z,29.86
2018-08-22T11:54:42.568Z,30.49
2018-08-22T11:57:11.605Z,30.05
2018-08-22T11:59:40.613Z,30.13
2018-08-22T12:02:10.676Z,29.16
2018-08-22T12:04:39.645Z,29.72
2018-08-22T12:07:09.009Z,29.59
2018-08-22T12:09:37.813Z,29.84
2018-08-22T12:12:06.770Z,30.59
2018-08-22T12:14:35.817Z,30.63
2018-08-22T12:17:04.762Z,30.50
2018-08-22T12:19:33.640Z,31.53
2018-08-22T12:22:03.138Z,30.51
2018-08-22T12:24:32.094Z,30.72
2018-08-22T12:27:01.193Z,29.12
2018-08-22T12:29:30.253Z,29.15
2018-08-22T12:31:59.070Z,29.54
2018-08-22T12:34:28.095Z,31.10
2018-08-22T12:36:57.077Z,30.38
2018-08-22T12:39:26.954Z,29.93
2018-08-22T12:41:55.951Z,29.69
2018-08-22T12:44:25.667Z,29.76
2018-08-22T12:46:54.547Z,29.23
2018-08-22T12:49:23.537Z,29.74
2018-08-22T12:51:52.524Z,29.33
2018-08-22T12:54:21.583Z,29.11
2018-08-22T12:56:50.340Z,28.82
2018-08-22T12:59:19.232Z,29.35
2018-08-22T13:01:48.236Z,29.48
2018-08-22T13:04:17.244Z,29.43
2018-08-22T13:06:46.646Z,29.83
2018-08-22T13:09:15.588Z,29.45
2018-08-22T13:11:44.642Z,30.39
2018-08-22T13:14:13.529Z,30.82
2018-08-22T13:16:42.400Z,30.55
2018-08-22T13:19:11.291Z,30.93
2018-08-22T13:21:40.113Z,30.51
2018-08-22T13:24:09.013Z,29.71
2018-08-22T13:26:37.960Z,30.64
2018-08-22T13:29:07.066Z,31.38
2018-08-22T13:31:36.199Z,30.21
2018-08-22T13:34:05.188Z,31.18
2018-08-22T13:36:34.277Z,30.55
2018-08-22T13:39:08.694Z,30.85
2018-08-22T13:41:37.832Z,30.94
2018-08-22T13:44:06.753Z,29.99
2018-08-22T13:46:35.804Z,29.88
2018-08-22T13:49:05.064Z,30.67
2018-08-22T13:51:34.053Z,29.90
2018-08-22T13:54:03.092Z,29.11
2018-08-22T13:56:32.318Z,29.30
2018-08-22T13:59:01.297Z,29.15
2018-08-22T14:01:30.232Z,28.77
2018-08-22T14:03:59.284Z,29.65
2018-08-22T14:06:28.354Z,28.84
2018-08-22T14:08:57.302Z,30.50
2018-08-22T14:11:26.692Z,31.05
2018-08-22T14:13:55.539Z,30.93
2018-08-22T14:16:24.541Z,30.04
2018-08-22T14:18:54.453Z,30.58
2018-08-22T14:21:23.334Z,30.37
2018-08-22T14:23:52.227Z,30.44
2018-08-22T14:26:21.102Z,30.71
2018-08-22T14:28:49.966Z,30.42
2018-08-22T14:31:18.787Z,31.12
2018-08-22T14:33:47.802Z,31.38
2018-08-22T14:36:16.879Z,31.09
2018-08-22T14:38:45.911Z,30.82
2018-08-22T14:41:14.955Z,29.72
2018-08-22T14:43:43.948Z,30.63
2018-08-22T14:46:12.991Z,30.40
2018-08-22T14:48:42.244Z,31.37
2018-08-22T14:51:11.335Z,30.53
2018-08-22T14:53:40.385Z,30.58
2018-08-22T14:56:09.503Z,30.48
2018-08-22T14:58:38.446Z,29.94
2018-08-22T15:01:07.551Z,29.20
2018-08-22T15:03:36.485Z,28.82
2018-08-22T15:06:05.382Z,29.44
2018-08-22T15:08:34.465Z,28.99
2018-08-22T15:11:03.501Z,30.69
2018-08-22T15:13:32.320Z,30.52
2018-08-22T15:16:01.365Z,30.24
2018-08-22T15:18:30.475Z,30.06
2018-08-22T15:20:59.672Z,29.67
2018-08-22T15:23:28.533Z,30.61
2018-08-22T15:25:58.082Z,30.83
2018-08-22T15:28:27.198Z,29.64
2018-08-22T15:30:56.375Z,30.42
2018-08-22T15:33:26.154Z,30.05
2018-08-22T15:35:55.235Z,31.58
2018-08-22T15:38:24.281Z,30.97
2018-08-22T15:40:53.738Z,30.16
2018-08-22T15:43:22.805Z,31.81
2018-08-22T15:45:51.777Z,31.93
2018-08-22T15:48:21.113Z,31.35
2018-08-22T15:50:50.093Z,30.71
2018-08-22T15:53:20.246Z,32.00
2018-08-22T15:55:49.293Z,31.42
2018-08-22T15:58:18.317Z,32.55
2018-08-22T16:00:52.373Z,31.17
2018-08-22T16:03:22.170Z,31.99
2018-08-22T16:05:52.560Z,31.36
2018-08-22T16:08:22.982Z,31.74
2018-08-22T16:10:52.586Z,31.51
2018-08-22T16:13:26.591Z,32.23
2018-08-22T16:15:56.730Z,31.58
2018-08-22T16:18:25.493Z,32.49
2018-08-22T16:20:54.570Z,31.50
2018-08-22T16:23:27.480Z,30.75
2018-08-22T16:25:57.197Z,31.01
2018-08-22T16:28:26.821Z,31.71
2018-08-22T16:30:58.421Z,30.54
2018-08-22T16:33:27.437Z,31.49
2018-08-22T16:35:56.471Z,31.57
2018-08-22T16:38:25.904Z,31.32
2018-08-22T16:40:54.937Z,31.56
2018-08-22T16:43:39.427Z,31.17
2018-08-22T16:46:10.208Z,31.38
2018-08-22T16:48:40.305Z,30.99
2018-08-22T16:51:09.292Z,32.20
2018-08-22T16:53:38.243Z,32.46
2018-08-22T16:56:07.602Z,32.35
2018-08-22T16:58:36.725Z,32.05
2018-08-22T17:01:05.899Z,33.02
2018-08-22T17:03:35.315Z,32.90
2018-08-22T17:06:09.113Z,33.68
2018-08-22T17:08:38.376Z,33.81
2018-08-22T17:11:08.176Z,34.20
2018-08-22T17:13:43.164Z,34.53
2018-08-22T17:16:11.997Z,33.68
2018-08-22T17:18:41.133Z,34.41
2018-08-22T17:21:10.970Z,34.65
2018-08-22T17:23:40.353Z,34.84
2018-08-22T17:26:14.087Z,35.13
2018-08-22T17:28:45.489Z,34.78
2018-08-22T17:31:15.125Z,35.05
2018-08-22T17:33:48.399Z,36.15
2018-08-22T17:36:17.826Z,36.70
2018-08-22T17:38:48.025Z,37.27
2018-08-22T17:41:18.695Z,37.11
2018-08-22T17:43:59.598Z,38.21
2018-08-22T17:46:31.005Z,38.42
2018-08-22T17:48:59.945Z,39.83
2018-08-22T17:51:29.146Z,39.95
2018-08-22T17:53:58.108Z,40.68
2018-08-22T17:56:27.678Z,40.22
2018-08-22T17:58:57.480Z,40.97
2018-08-22T18:01:26.647Z,41.94
2018-08-22T18:03:56.832Z,41.65
2018-08-22T18:06:26.353Z,42.74
2018-08-22T18:08:55.702Z,42.28
2018-08-22T18:11:26.285Z,41.39
2018-08-22T18:13:58.586Z,40.76
2018-08-22T18:16:27.555Z,40.40
2018-08-22T18:18:56.669Z,39.46
2018-08-22T18:21:33.828Z,39.38
2018-08-22T18:24:03.502Z,38.67
2018-08-22T18:26:32.864Z,39.59
2018-08-22T18:29:02.603Z,38.76
2018-08-22T18:31:31.527Z,39.80
2018-08-22T18:34:02.974Z,39.03
2018-08-22T18:36:32.849Z,40.14
2018-08-22T18:39:13.292Z,40.49
2018-08-22T18:41:42.158Z,39.90
2018-08-22T18:44:11.181Z,40.69
2018-08-22T18:46:40.209Z,41.21
2018-08-22T18:49:09.082Z,40.66
2018-08-22T18:51:38.091Z,41.64
2018-08-22T18:54:07.207Z,40.85
2018-08-22T18:56:36.121Z,41.15
2018-08-22T18:59:15.827Z,40.50
2018-08-22T19:01:44.868Z,40.56
2018-08-22T19:04:13.735Z,40.41
2018-08-22T19:06:42.730Z,40.44
2018-08-22T19:09:11.693Z,40.02
2018-08-22T19:11:40.793Z,39.36
2018-08-22T19:14:10.217Z,38.59
2018-08-22T19:16:39.905Z,38.24
2018-08-22T19:19:08.839Z,38.07
2018-08-22T19:21:37.757Z,39.23
2018-08-22T19:24:07.457Z,38.50
2018-08-22T19:26:36.251Z,38.82
2018-08-22T19:29:07.024Z,38.52
2018-08-22T19:31:38.240Z,37.99
2018-08-22T19:34:07.356Z,36.64
2018-08-22T19:36:36.321Z,36.00
2018-08-22T19:39:06.652Z,35.09
2018-08-22T19:41:35.516Z,35.10
2018-08-22T19:44:05.049Z,33.21
2018-08-22T19:46:34.471Z,33.01
2018-08-22T19:49:03.364Z,32.03
2018-08-22T19:51:32.319Z,32.53
2018-08-22T19:54:04.592Z,32.56
2018-08-22T19:56:33.752Z,31.76
2018-08-22T19:59:03.291Z,32.14
2018-08-22T20:01:34.169Z,32.26
2018-08-22T20:04:03.195Z,31.77
2018-08-22T20:06:32.561Z,32.13
2018-08-22T20:09:02.113Z,31.49
2018-08-22T20:11:34.141Z,30.26
2018-08-22T20:14:04.811Z,30.39
2018-08-22T20:16:33.716Z,31.17
2018-08-22T20:19:03.967Z,30.31
2018-08-22T20:21:40.493Z,30.30
2018-08-22T20:24:11.139Z,30.88
2018-08-22T20:26:49.008Z,31.34
2018-08-22T20:29:18.166Z,30.61
2018-08-22T20:31:47.186Z,30.90
2018-08-22T20:34:17.200Z,31.66
2018-08-22T20:36:48.948Z,31.79
2018-08-22T20:39:17.988Z,31.92
2018-08-22T20:41:47.117Z,32.09
2018-08-22T20:44:18.214Z,32.48
2018-08-22T20:46:48.202Z,31.74
2018-08-22T20:49:19.278Z,31.69
2018-08-22T20:51:48.639Z,32.28
2018-08-22T20:54:21.539Z,32.96
2018-08-22T20:56:56.754Z,32.92
2018-08-22T20:59:25.827Z,33.38
2018-08-22T21:02:00.026Z,33.63
2018-08-22T21:04:29.069Z,32.83
2018-08-22T21:06:58.077Z,33.59
2018-08-22T21:09:27.227Z,33.89
2018-08-22T21:11:58.239Z,33.91
2018-08-22T21:14:28.652Z,33.20
2018-08-22T21:16:57.557Z,34.36
2018-08-22T21:19:26.547Z,34.50
2018-08-22T21:21:55.489Z,34.89
2018-08-22T21:24:25.253Z,34.79
2018-08-22T21:26:54.146Z,35.67
2018-08-22T21:29:23.063Z,35.40
2018-08-22T21:31:52.059Z,35.50
2018-08-22T21:34:21.091Z,35.74
2018-08-22T21:36:50.061Z,35.97
2018-08-22T21:39:24.789Z,36.11
2018-08-22T21:41:54.462Z,35.87
2018-08-22T21:44:24.190Z,36.30
2018-08-22T21:47:00.424Z,36.90
2018-08-22T21:49:29.805Z,37.18
2018-08-22T21:52:01.679Z,36.63
2018-08-22T21:54:30.682Z,37.80
2018-08-22T21:56:59.658Z,37.59
2018-08-22T21:59:28.655Z,37.16
2018-08-22T22:02:02.845Z,37.33
2018-08-22T22:04:34.766Z,37.82
2018-08-22T22:07:04.950Z,37.41
2018-08-22T22:09:34.522Z,36.58
2018-08-22T22:12:04.049Z,36.77
2018-08-22T22:14:36.715Z,36.52
2018-08-22T22:17:06.381Z,36.28
2018-08-22T22:19:36.289Z,36.54
2018-08-22T22:22:05.952Z,36.94
2018-08-22T22:24:41.403Z,37.48
2018-08-22T22:27:10.903Z,37.28
2018-08-22T22:29:39.795Z,37.31
2018-08-22T22:32:12.630Z,36.94
2018-08-22T22:34:41.773Z,36.96
2018-08-22T22:37:17.387Z,38.08
2018-08-22T22:39:46.990Z,37.84
2018-08-22T22:42:28.162Z,37.49
2018-08-22T22:44:58.440Z,38.83
2018-08-22T22:47:31.564Z,39.11
2018-08-22T22:50:01.200Z,38.73
2018-08-22T22:52:40.084Z,38.91
2018-08-22T22:55:10.012Z,38.47
2018-08-22T22:57:40.303Z,39.33
2018-08-22T23:00:13.245Z,40.03
2018-08-22T23:02:42.393Z,39.92
2018-08-22T23:05:11.433Z,39.96
2018-08-22T23:07:41.333Z,40.42
2018-08-22T23:10:12.751Z,41.20
2018-08-22T23:12:45.674Z,41.12
2018-08-22T23:15:17.429Z,41.49
2018-08-22T23:17:47.906Z,41.67
2018-08-22T23:20:27.804Z,42.16
2018-08-22T23:22:57.808Z,42.75
2018-08-22T23:25:27.079Z,42.35
2018-08-22T23:27:56.114Z,42.55
2018-08-22T23:30:30.073Z,42.87
2018-08-22T23:32:59.095Z,43.23
2018-08-22T23:35:33.528Z,43.93
2018-08-22T23:38:07.696Z,44.12
2018-08-22T23:40:37.967Z,44.91
2018-08-22T23:43:06.870Z,44.69
2018-08-22T23:45:37.639Z,45.35
2018-08-22T23:48:06.988Z,45.99
2018-08-22T23:50:45.577Z,45.85
2018-08-22T23:53:14.497Z,46.13
2018-08-22T23:55:43.328Z,46.99
2018-08-22T23:58:12.629Z,47.74
